Simi Valley, California
Current Conditions -  °F | °C
As of 3:51 PM on Monday 20 Oct 2014 (Local Time) from KVNY Reporting Station
Clear Clear  
Wind Chill: 80°   Ceiling: Unl
Heat Index: 81°   Visibility: 10mi
Dew Point: 58°   Wind: 9mph
Humidity: 47%   Direction: 170°S
Pressure: 29.86"   Gusts: NA
Location:  34.29°N, 118.71°W
Report Text: KVNY 202251Z 17008KT 10SM CLR 27/14 A2986 RMK AO2 SLP103 T02670144
Loading
Personal Weather Stations






























Interactive Weather Map
Tropical Storm Tracking
New forecast layout! Learn more

10-Day Weather Forecast

Advertisements
Track Severe Weather on mobile